This is the latest recevied weather packets stored in our database for station/object K8CWG. If no packets are shown the sender has not sent any weather packets the latest 10 day(s).
| Time | Temp. | Humidity | Pressure | Rain* | Wind** | Luminosity | Snow |
|---|---|---|---|---|---|---|---|
| 1777741203 | 12.22° C | 48% | 1017 hPa | 0 mm | - | - | - |
| 1777737602 | 11.67° C | 52% | 1017.3 hPa | 0 mm | - | - | - |
| 1777734004 | 10° C | 54% | 1017.6 hPa | 0 mm | - | - | - |
| 1777730403 | 8.33° C | 61% | 1017.5 hPa | 0 mm | - | - | - |
| 1777726803 | 6.67° C | 74% | 1017.3 hPa | 0 mm | - | - | - |
| 1777723204 | 3.89° C | 87% | 1017.1 hPa | 0 mm | - | - | - |
| 1777719603 | 2.78° C | 93% | 1016.7 hPa | 0 mm | - | - | - |
| 1777716005 | 1.67° C | 93% | 1016.5 hPa | 0 mm | - | - | - |
| 1777712402 | 1.67° C | 91% | 1016.6 hPa | 0 mm | - | - | - |
| 1777708806 | 2.78° C | 91% | 1016.2 hPa | 0 mm | - | - | - |
| 1777705203 | 3.33° C | 89% | 1016.1 hPa | 0 mm | - | - | - |
| 1777701602 | 3.89° C | 90% | 1016.8 hPa | 0 mm | - | - | - |
| 1777698903 | 3.33° C | 91% | 1016.7 hPa | 0 mm | - | - | - |
| 1777698003 | 3.89° C | 91% | 1016.8 hPa | 0 mm | - | - | - |
| 1777697101 | 3.89° C | 90% | 1016.7 hPa | 0 mm | - | - | - |
| 1777696202 | 3.89° C | 90% | 1016.8 hPa | 0 mm | - | - | - |
| 1777695301 | 3.89° C | 89% | 1016.7 hPa | 0 mm | - | - | - |
| 1777694404 | 4.44° C | 89% | 1016.6 hPa | 0 mm | - | - | - |
| 1777693502 | 4.44° C | 88% | 1016.8 hPa | 0 mm | - | - | - |
| 1777692602 | 5° C | 87% | 1016.7 hPa | 0 mm | - | - | - |
| 1777691701 | 5° C | 85% | 1016.7 hPa | 0 mm | - | - | - |
| 1777690803 | 5.56° C | 84% | 1016.6 hPa | 0 mm | - | - | - |
| 1777689901 | 6.11° C | 84% | 1016.5 hPa | 0 mm | - | - | - |
| 1777689002 | 6.11° C | 84% | 1016.5 hPa | 0 mm | - | - | - |
| 1777688102 | 6.11° C | 85% | 1016.1 hPa | 0 mm | - | - | - |
* Rain latest hour (hover to see other rain measurements)
** Current wind speed in m/s (hover to see current wind gust speed)